B9189 VNPL-VNLK
Flight info
| Callsign | B9189 |
|---|---|
| Flight time | 0h 14m |
| Altitude | 15000 |
| Route | / |
| Aircraft | DA40/L-V/N |
Departure
| Time | 2025-11-09 02:12 |
|---|---|
| Airport | Phaplu Airport (VNPL) |
Arrival
| Time | 2025-11-09 02:26 |
|---|---|
| Airport | Tenzing-Hillary Airport (VNLK) |
| Time | Latitude | Longitude | Altitude | Speed | Heading |
|---|---|---|---|---|---|
| 2025-11-09 02:03 | 27.51700 | 86.58416 | 8111 ft | 0 kts | 279° |
| 2025-11-09 02:09 | 27.51963 | 86.58577 | 8084 ft | 43 kts | 21° |
| 2025-11-09 02:09 | 27.52090 | 86.58650 | 8071 ft | 6 kts | 221° |
| 2025-11-09 02:10 | 27.51732 | 86.58484 | 8108 ft | 57 kts | 204° |
| 2025-11-09 02:10 | 27.50824 | 86.58060 | 8376 ft | 75 kts | 208° |
| 2025-11-09 02:10 | 27.50324 | 86.57837 | 8565 ft | 85 kts | 202° |
| 2025-11-09 02:11 | 27.49169 | 86.57355 | 9074 ft | 87 kts | 188° |
| 2025-11-09 02:12 | 27.47245 | 86.57740 | 9620 ft | 97 kts | 157° |
| 2025-11-09 02:12 | 27.46035 | 86.58488 | 10006 ft | 102 kts | 150° |
| 2025-11-09 02:13 | 27.45431 | 86.59934 | 10474 ft | 111 kts | 85° |
| 2025-11-09 02:13 | 27.46106 | 86.61607 | 10885 ft | 117 kts | 60° |
| 2025-11-09 02:14 | 27.46898 | 86.63267 | 11237 ft | 123 kts | 63° |
| 2025-11-09 02:14 | 27.47276 | 86.64091 | 11440 ft | 119 kts | 61° |
| 2025-11-09 02:14 | 27.48061 | 86.65705 | 11761 ft | 121 kts | 59° |
| 2025-11-09 02:15 | 27.48999 | 86.67225 | 12085 ft | 118 kts | 34° |
| 2025-11-09 02:16 | 27.51302 | 86.67992 | 12659 ft | 115 kts | 7° |
| 2025-11-09 02:16 | 27.52858 | 86.68321 | 12998 ft | 118 kts | 5° |
| 2025-11-09 02:17 | 27.54431 | 86.68744 | 13538 ft | 113 kts | 7° |
| 2025-11-09 02:17 | 27.55204 | 86.68942 | 13687 ft | 115 kts | 8° |
| 2025-11-09 02:17 | 27.56751 | 86.69500 | 14014 ft | 121 kts | 22° |
| 2025-11-09 02:18 | 27.58333 | 86.70122 | 14334 ft | 125 kts | 7° |
| 2025-11-09 02:18 | 27.59975 | 86.70544 | 14732 ft | 121 kts | 10° |
| 2025-11-09 02:19 | 27.61930 | 86.70800 | 14115 ft | 155 kts | 346° |
| 2025-11-09 02:20 | 27.64091 | 86.70117 | 13205 ft | 106 kts | 270° |
| 2025-11-09 02:20 | 27.65539 | 86.70122 | 12646 ft | 148 kts | 40° |
| 2025-11-09 02:21 | 27.64767 | 86.70580 | 12175 ft | 128 kts | 296° |
| 2025-11-09 02:21 | 27.65408 | 86.70818 | 12039 ft | 130 kts | 90° |
| 2025-11-09 02:21 | 27.64800 | 86.70538 | 11623 ft | 120 kts | 334° |
| 2025-11-09 02:22 | 27.66533 | 86.70947 | 10555 ft | 135 kts | 19° |
| 2025-11-09 02:22 | 27.68141 | 86.71979 | 9327 ft | 129 kts | 51° |
| 2025-11-09 02:23 | 27.68978 | 86.73107 | 9459 ft | 76 kts | 339° |
| 2025-11-09 02:24 | 27.68813 | 86.71101 | 9144 ft | 99 kts | 204° |
| 2025-11-09 02:24 | 27.68326 | 86.72201 | 8943 ft | 73 kts | 97° |
| 2025-11-09 02:24 | 27.68306 | 86.72770 | 8998 ft | 73 kts | 101° |
| 2025-11-09 02:25 | 27.68270 | 86.73650 | 9425 ft | 8 kts | 18° |